Time;durP1;ratioP1;P1;durP2;ratioP2;P2;SDS_P1;SDS_P2;PMS_P1;PMS_P2;Temp;Humidity;BMP_temperature;BMP_pressure;BME280_temperature;BME280_humidity;BME280_pressure;Samples;Min_cycle;Max_cycle;Signal;HPM_P1;HPM_P2
2023/12/29 00:01:46;;;;;;;18.38;2.78;;;9.70;99.90;;;;;;5082167;28;20127;-66
2023/12/29 00:04:12;;;;;;;18.13;3.05;;;9.60;99.90;;;;;;5127527;27;20134;-66
2023/12/29 00:06:39;;;;;;;15.85;3.20;;;9.70;99.90;;;;;;5136511;27;20112;-66
2023/12/29 00:09:05;;;;;;;23.10;3.40;;;9.70;99.90;;;;;;5078390;28;20058;-66
2023/12/29 00:11:31;;;;;;;19.45;3.22;;;9.70;99.90;;;;;;5105499;28;20123;-66
2023/12/29 00:13:57;;;;;;;15.80;2.78;;;9.70;99.90;;;;;;5105441;28;20517;-65
2023/12/29 00:16:24;;;;;;;20.42;4.03;;;9.70;99.90;;;;;;5104160;28;20039;-65
2023/12/29 00:18:49;;;;;;;16.27;3.03;;;9.70;99.90;;;;;;5104723;28;20042;-65
2023/12/29 00:21:15;;;;;;;18.38;2.88;;;9.80;99.90;;;;;;5106559;28;20133;-65
2023/12/29 00:23:41;;;;;;;15.93;2.60;;;9.70;99.90;;;;;;5086858;28;20519;-66
2023/12/29 00:26:07;;;;;;;17.90;3.35;;;9.70;99.90;;;;;;5103844;28;20059;-66
2023/12/29 00:28:40;;;;;;;20.45;3.22;;;9.80;99.90;;;;;;5086774;28;20052;-66
2023/12/29 00:31:06;;;;;;;18.08;3.35;;;9.70;99.90;;;;;;5082730;28;20056;-66
2023/12/29 00:33:32;;;;;;;17.83;3.13;;;9.70;99.90;;;;;;5095944;28;20089;-65
2023/12/29 00:35:58;;;;;;;19.88;2.90;;;9.80;99.90;;;;;;5109062;27;20229;-65
2023/12/29 00:38:26;;;;;;;19.58;2.83;;;9.70;99.90;;;;;;5103320;28;20044;-65
2023/12/29 00:40:52;;;;;;;21.13;2.83;;;9.90;99.90;;;;;;5099786;28;20040;-68
2023/12/29 00:43:17;;;;;;;14.98;2.40;;;9.70;99.90;;;;;;5140551;27;20567;-66
2023/12/29 00:45:43;;;;;;;17.17;3.30;;;9.70;99.90;;;;;;5107251;28;20043;-66
2023/12/29 00:48:09;;;;;;;19.10;2.75;;;9.70;99.90;;;;;;5089096;28;20155;-66
2023/12/29 00:50:35;;;;;;;12.50;2.20;;;9.70;99.90;;;;;;5106978;28;20055;-66
2023/12/29 00:53:00;;;;;;;20.48;3.20;;;9.70;99.90;;;;;;5106725;27;20106;-66
2023/12/29 00:55:26;;;;;;;15.65;2.63;;;9.70;99.90;;;;;;5106225;28;20050;-66
2023/12/29 00:57:52;;;;;;;20.40;2.92;;;9.70;99.90;;;;;;5105557;28;20510;-65
2023/12/29 01:00:18;;;;;;;18.80;3.05;;;9.70;99.90;;;;;;5107351;28;20040;-66
2023/12/29 01:02:43;;;;;;;15.80;2.33;;;9.70;99.90;;;;;;5104896;28;20822;-66
2023/12/29 01:05:09;;;;;;;17.13;2.42;;;9.70;99.90;;;;;;5125564;27;20043;-66
2023/12/29 01:07:35;;;;;;;16.85;2.33;;;9.70;99.90;;;;;;5132827;27;20044;-66
2023/12/29 01:10:01;;;;;;;17.90;2.42;;;9.70;99.90;;;;;;5106714;28;20040;-66
2023/12/29 01:12:27;;;;;;;20.13;3.00;;;9.70;99.90;;;;;;5098198;28;20055;-66
2023/12/29 01:14:52;;;;;;;21.50;3.25;;;9.70;99.90;;;;;;5126923;27;20482;-67
2023/12/29 01:17:18;;;;;;;18.70;3.22;;;9.70;99.90;;;;;;5106207;28;20044;-67
2023/12/29 01:19:44;;;;;;;12.50;2.65;;;9.70;99.90;;;;;;5128211;27;20084;-67
2023/12/29 01:22:10;;;;;;;18.85;3.08;;;9.70;99.90;;;;;;5082146;28;20054;-67
2023/12/29 01:24:35;;;;;;;16.70;3.08;;;9.70;99.90;;;;;;5099562;27;20168;-66
2023/12/29 01:27:04;;;;;;;18.67;3.33;;;9.70;99.90;;;;;;5104150;28;20163;-66
2023/12/29 01:29:29;;;;;;;19.33;2.92;;;9.60;99.90;;;;;;5098676;28;20032;-66
2023/12/29 01:31:55;;;;;;;19.73;3.22;;;9.70;99.90;;;;;;5132750;27;20058;-67
2023/12/29 01:34:21;;;;;;;21.52;3.13;;;9.70;99.90;;;;;;5123456;27;20044;-66
2023/12/29 01:36:47;;;;;;;18.20;3.25;;;9.60;99.90;;;;;;5104668;28;20226;-66
2023/12/29 01:39:13;;;;;;;26.30;3.53;;;9.60;99.90;;;;;;5103845;28;20054;-66
2023/12/29 01:41:38;;;;;;;26.33;3.55;;;9.60;99.90;;;;;;5086844;28;20130;-66
2023/12/29 01:44:18;;;;;;;21.55;3.15;;;9.60;99.90;;;;;;5103362;28;20043;-66
2023/12/29 01:46:45;;;;;;;17.58;2.97;;;9.60;99.90;;;;;;5102138;28;20526;-66
2023/12/29 01:49:13;;;;;;;17.20;3.22;;;9.60;99.90;;;;;;5103587;28;20050;-66
2023/12/29 01:51:40;;;;;;;18.25;2.72;;;9.70;99.90;;;;;;5125805;27;20101;-66
2023/12/29 01:54:05;;;;;;;14.25;2.60;;;9.60;99.90;;;;;;5130815;27;20054;-66
2023/12/29 01:56:31;;;;;;;15.98;2.08;;;9.60;99.90;;;;;;5105742;27;20036;-65
2023/12/29 01:58:57;;;;;;;11.35;1.88;;;9.60;99.90;;;;;;5105510;28;20108;-64
2023/12/29 02:01:23;;;;;;;14.13;2.25;;;9.60;99.90;;;;;;5125281;27;20083;-65
2023/12/29 02:03:49;;;;;;;10.82;1.75;;;9.60;99.90;;;;;;5102411;28;20055;-64
2023/12/29 02:06:17;;;;;;;8.35;1.42;;;9.50;99.90;;;;;;5105321;28;20110;-65
2023/12/29 02:08:43;;;;;;;10.68;1.67;;;9.50;99.90;;;;;;5103755;28;20097;-66
2023/12/29 02:11:10;;;;;;;8.45;1.67;;;9.40;99.90;;;;;;5104976;28;20547;-66
2023/12/29 02:13:35;;;;;;;14.07;2.30;;;9.40;99.90;;;;;;5129253;27;20119;-66
2023/12/29 02:16:11;;;;;;;11.55;1.88;;;9.30;99.90;;;;;;5086722;28;20061;-66
2023/12/29 02:18:38;;;;;;;8.13;1.67;;;9.40;99.90;;;;;;5099791;28;20082;-66
2023/12/29 02:21:04;;;;;;;17.02;2.08;;;9.30;99.90;;;;;;5086625;28;20051;-65
2023/12/29 02:23:30;;;;;;;11.73;1.90;;;9.30;99.90;;;;;;5102389;28;20179;-65
2023/12/29 02:26:02;;;;;;;14.13;1.98;;;9.30;99.90;;;;;;5100974;28;20432;-65
2023/12/29 02:28:28;;;;;;;18.85;2.55;;;9.30;99.90;;;;;;5104172;28;20055;-66
2023/12/29 02:31:10;;;;;;;10.60;2.33;;;9.20;99.90;;;;;;5103794;28;20043;-66
2023/12/29 02:33:40;;;;;;;14.80;2.58;;;9.50;99.90;;;;;;5095286;28;20054;-65
2023/12/29 02:36:07;;;;;;;16.02;2.60;;;9.20;99.90;;;;;;5097777;28;20044;-65
2023/12/29 02:38:33;;;;;;;15.77;2.20;;;9.20;99.90;;;;;;5078976;28;20052;-65
2023/12/29 02:41:00;;;;;;;11.63;2.38;;;9.10;99.90;;;;;;5111629;28;20048;-66
2023/12/29 02:43:26;;;;;;;15.77;2.30;;;9.10;99.90;;;;;;5099950;28;20131;-65
2023/12/29 02:45:52;;;;;;;15.00;2.97;;;9.00;99.90;;;;;;5096817;28;20114;-68
2023/12/29 02:48:17;;;;;;;16.30;2.30;;;9.00;99.90;;;;;;5108605;27;20118;-68
2023/12/29 02:50:44;;;;;;;22.63;2.75;;;9.00;99.90;;;;;;5087690;28;20576;-67
2023/12/29 02:53:13;;;;;;;16.63;2.70;;;9.00;99.90;;;;;;5105023;28;20074;-66
2023/12/29 02:55:39;;;;;;;22.55;3.17;;;9.00;99.90;;;;;;5107659;28;20522;-68
2023/12/29 02:58:04;;;;;;;23.80;3.50;;;9.00;99.90;;;;;;5104582;28;20047;-68
2023/12/29 03:00:30;;;;;;;23.10;3.33;;;9.10;99.90;;;;;;5079244;28;20044;-68
2023/12/29 03:02:56;;;;;;;26.40;4.75;;;9.10;99.90;;;;;;5079450;28;20071;-68
2023/12/29 03:05:23;;;;;;;20.05;3.70;;;9.10;99.90;;;;;;5082905;28;20047;-68
2023/12/29 03:07:49;;;;;;;23.20;3.58;;;9.10;99.90;;;;;;5089660;28;20099;-68
2023/12/29 03:10:15;;;;;;;23.35;3.70;;;9.10;99.90;;;;;;5106905;28;20753;-67
2023/12/29 03:12:41;;;;;;;29.40;4.55;;;9.10;99.90;;;;;;5108755;27;20331;-68
2023/12/29 03:15:06;;;;;;;34.60;5.13;;;9.20;99.90;;;;;;5081033;28;20047;-69
2023/12/29 03:17:32;;;;;;;25.90;4.53;;;9.20;99.90;;;;;;5102351;28;20130;-69
2023/12/29 03:19:58;;;;;;;31.30;3.88;;;9.20;99.90;;;;;;5086936;28;20113;-69
2023/12/29 03:22:24;;;;;;;29.70;6.20;;;9.30;99.90;;;;;;5130180;27;20122;-68
2023/12/29 03:24:53;;;;;;;34.80;4.50;;;9.30;99.90;;;;;;5131647;27;20132;-68
2023/12/29 03:27:19;;;;;;;34.47;5.47;;;9.30;99.90;;;;;;5088701;28;20601;-68
2023/12/29 03:29:45;;;;;;;29.10;4.70;;;9.40;99.90;;;;;;5085850;28;20047;-69
2023/12/29 03:32:11;;;;;;;31.48;4.43;;;9.40;99.90;;;;;;5128280;27;20039;-69
2023/12/29 03:34:37;;;;;;;27.98;5.03;;;9.40;99.90;;;;;;5089512;28;20066;-68
2023/12/29 03:37:03;;;;;;;27.52;5.55;;;9.50;99.90;;;;;;5108306;28;20044;-68
2023/12/29 03:39:29;;;;;;;25.00;4.53;;;9.50;99.90;;;;;;5083679;28;20059;-68
2023/12/29 03:41:55;;;;;;;32.20;5.60;;;9.50;99.90;;;;;;5083030;28;20043;-68
2023/12/29 03:44:24;;;;;;;27.70;3.90;;;9.50;99.90;;;;;;5088972;28;20047;-69
2023/12/29 03:46:53;;;;;;;29.00;4.43;;;9.90;99.90;;;;;;5100500;28;20068;-69
2023/12/29 03:49:22;;;;;;;26.05;4.55;;;9.50;99.90;;;;;;5088636;28;20280;-68
2023/12/29 03:51:48;;;;;;;39.35;5.22;;;9.50;99.90;;;;;;5101926;28;20148;-69
2023/12/29 03:54:14;;;;;;;31.17;4.55;;;9.50;99.90;;;;;;5102938;28;20726;-69
2023/12/29 03:56:40;;;;;;;30.90;4.75;;;9.70;99.90;;;;;;5128285;27;20204;-69
2023/12/29 03:59:06;;;;;;;30.80;4.43;;;9.70;99.90;;;;;;5105997;27;20884;-69
2023/12/29 04:01:34;;;;;;;36.20;4.45;;;9.40;99.90;;;;;;5124455;27;20516;-69
2023/12/29 04:04:00;;;;;;;25.27;3.72;;;9.50;99.90;;;;;;5095029;28;20054;-69
2023/12/29 04:06:26;;;;;;;33.22;5.55;;;9.50;99.90;;;;;;5108370;27;20043;-69
2023/12/29 04:08:51;;;;;;;31.38;5.13;;;9.50;99.90;;;;;;5069811;28;20055;-69
2023/12/29 04:11:17;;;;;;;36.13;5.03;;;9.50;99.90;;;;;;5092527;28;20054;-69
2023/12/29 04:13:43;;;;;;;26.38;4.50;;;9.50;99.90;;;;;;5079135;28;20043;-69
2023/12/29 04:16:09;;;;;;;27.27;4.70;;;9.80;99.90;;;;;;5121116;27;20524;-69
2023/12/29 04:18:35;;;;;;;28.73;4.50;;;9.50;99.90;;;;;;5092704;28;20719;-69
2023/12/29 04:21:01;;;;;;;25.35;4.55;;;9.40;99.90;;;;;;5073039;28;20047;-68
2023/12/29 04:23:27;;;;;;;30.02;4.95;;;9.60;99.90;;;;;;5076858;28;20079;-69
2023/12/29 04:25:53;;;;;;;29.48;4.35;;;9.90;99.90;;;;;;5084630;28;20090;-69
2023/12/29 04:28:19;;;;;;;34.00;4.40;;;9.50;99.90;;;;;;5078269;28;20122;-68
2023/12/29 04:30:45;;;;;;;28.48;5.13;;;9.50;99.90;;;;;;5107439;27;20052;-69
2023/12/29 04:33:11;;;;;;;26.40;4.78;;;9.40;99.90;;;;;;5125483;27;20062;-68
2023/12/29 04:35:37;;;;;;;24.35;3.92;;;9.40;99.90;;;;;;5076796;28;20520;-69
2023/12/29 04:38:03;;;;;;;25.88;4.55;;;9.60;99.90;;;;;;5095790;28;20066;-69
2023/12/29 04:40:29;;;;;;;25.35;4.97;;;9.50;99.90;;;;;;5125765;27;20048;-69
2023/12/29 04:42:54;;;;;;;33.42;4.13;;;9.70;99.90;;;;;;5093283;28;20036;-68
2023/12/29 04:45:21;;;;;;;29.77;4.78;;;9.40;99.90;;;;;;5097363;28;20036;-68
2023/12/29 04:47:47;;;;;;;32.78;4.30;;;9.40;99.90;;;;;;5106182;28;20059;-68
2023/12/29 04:50:13;;;;;;;24.65;4.30;;;10.00;99.90;;;;;;5088451;28;20199;-69
2023/12/29 04:52:39;;;;;;;30.60;4.15;;;9.70;99.90;;;;;;5105680;28;20130;-69
2023/12/29 04:55:05;;;;;;;29.33;3.97;;;9.40;99.90;;;;;;5088395;28;20047;-70
2023/12/29 04:57:31;;;;;;;26.02;3.90;;;9.30;99.90;;;;;;5112107;27;20040;-69
2023/12/29 04:59:57;;;;;;;25.75;4.07;;;9.30;99.90;;;;;;5114722;27;20040;-69
2023/12/29 05:02:23;;;;;;;30.25;4.43;;;9.40;99.90;;;;;;5120916;27;20378;-68
2023/12/29 05:04:49;;;;;;;26.90;4.18;;;9.30;99.90;;;;;;5073026;28;20046;-68
2023/12/29 05:07:15;;;;;;;24.00;4.05;;;9.30;99.90;;;;;;5100016;28;20047;-69
2023/12/29 05:09:41;;;;;;;27.98;4.18;;;9.40;99.90;;;;;;5103947;28;20047;-69
2023/12/29 05:12:07;;;;;;;31.42;4.25;;;9.30;99.90;;;;;;5087409;28;20039;-69
2023/12/29 05:14:33;;;;;;;24.52;4.18;;;9.30;99.90;;;;;;5135753;27;20649;-69
2023/12/29 05:16:59;;;;;;;27.17;4.10;;;9.90;99.90;;;;;;5130533;27;20092;-69
2023/12/29 05:19:25;;;;;;;25.30;3.60;;;9.40;99.90;;;;;;5105828;28;20743;-69
2023/12/29 05:21:53;;;;;;;26.52;3.75;;;9.40;99.90;;;;;;5084582;28;20036;-70
2023/12/29 05:24:19;;;;;;;24.83;4.35;;;9.30;99.90;;;;;;5086223;28;20048;-69
2023/12/29 05:26:46;;;;;;;26.10;4.13;;;9.50;99.90;;;;;;5103036;28;20082;-69
2023/12/29 05:29:12;;;;;;;33.10;4.85;;;9.40;99.90;;;;;;5086992;28;20040;-69
2023/12/29 05:31:38;;;;;;;28.00;3.72;;;9.40;99.90;;;;;;5088296;28;20048;-69
2023/12/29 05:34:04;;;;;;;31.13;4.30;;;9.40;99.90;;;;;;5098450;28;20035;-69
2023/12/29 05:36:29;;;;;;;32.92;4.80;;;9.40;99.90;;;;;;5101667;28;20108;-69
2023/12/29 05:38:56;;;;;;;28.15;4.40;;;9.40;99.90;;;;;;5088223;28;20044;-69
2023/12/29 05:41:22;;;;;;;25.35;3.75;;;9.40;99.90;;;;;;5093927;28;20062;-69
2023/12/29 05:43:48;;;;;;;35.70;4.15;;;9.40;99.90;;;;;;5105220;27;20043;-69
2023/12/29 05:46:14;;;;;;;33.17;4.40;;;9.40;99.90;;;;;;5100509;28;20028;-68
2023/12/29 05:48:40;;;;;;;26.05;3.83;;;9.30;99.90;;;;;;5109258;27;20043;-68
2023/12/29 05:51:09;;;;;;;33.60;4.35;;;9.40;99.90;;;;;;5085343;28;20043;-68
2023/12/29 05:53:35;;;;;;;24.25;4.00;;;9.40;99.90;;;;;;5086609;28;20043;-69
2023/12/29 05:56:01;;;;;;;31.45;4.07;;;9.40;99.90;;;;;;5104327;28;20039;-68
2023/12/29 05:58:27;;;;;;;23.25;4.32;;;9.40;99.90;;;;;;5087381;28;20047;-68
2023/12/29 06:00:54;;;;;;;34.20;4.40;;;9.40;99.90;;;;;;5097093;28;20124;-69
2023/12/29 06:03:24;;;;;;;20.30;3.58;;;9.40;99.90;;;;;;5085371;28;20055;-68
2023/12/29 06:05:51;;;;;;;22.67;4.03;;;9.40;99.90;;;;;;5086869;28;20043;-69
2023/12/29 06:08:17;;;;;;;23.52;4.43;;;9.40;99.90;;;;;;5085244;28;20075;-69
2023/12/29 06:10:43;;;;;;;28.98;5.03;;;9.40;99.90;;;;;;5095128;27;20824;-69
2023/12/29 06:13:09;;;;;;;26.38;3.97;;;9.40;99.90;;;;;;5095732;28;20400;-67
2023/12/29 06:15:36;;;;;;;30.38;4.85;;;9.40;99.90;;;;;;5075416;28;20048;-68
2023/12/29 06:18:02;;;;;;;26.83;4.05;;;9.40;99.90;;;;;;5079261;28;20049;-68
2023/12/29 06:20:28;;;;;;;26.20;3.75;;;9.40;99.90;;;;;;5101505;28;20583;-68
2023/12/29 06:22:56;;;;;;;27.02;4.95;;;9.40;99.90;;;;;;5086157;28;20036;-67
2023/12/29 06:25:22;;;;;;;22.60;4.05;;;9.40;99.90;;;;;;5083721;28;20046;-69
2023/12/29 06:27:48;;;;;;;29.98;4.65;;;9.40;99.90;;;;;;5109788;28;20052;-68
2023/12/29 06:30:14;;;;;;;26.92;3.97;;;9.40;99.90;;;;;;5101144;28;20078;-68
2023/12/29 06:32:41;;;;;;;28.27;4.38;;;9.30;99.90;;;;;;5128995;27;20066;-69
2023/12/29 06:35:09;;;;;;;24.27;4.45;;;9.40;99.90;;;;;;5123311;27;20059;-68
2023/12/29 06:37:38;;;;;;;29.27;4.05;;;9.40;99.90;;;;;;5116877;27;20039;-68
2023/12/29 06:40:06;;;;;;;31.02;4.05;;;9.30;99.90;;;;;;5086027;28;20039;-67
2023/12/29 06:42:32;;;;;;;29.63;4.30;;;9.30;99.90;;;;;;5090910;28;20404;-68
2023/12/29 06:44:58;;;;;;;29.63;4.57;;;9.20;99.90;;;;;;5108471;28;20048;-68
2023/12/29 06:47:24;;;;;;;22.60;3.17;;;9.20;99.90;;;;;;5108723;28;20066;-68
2023/12/29 06:49:53;;;;;;;26.45;4.15;;;9.20;99.90;;;;;;5087604;28;20097;-68
2023/12/29 06:52:19;;;;;;;27.58;4.07;;;9.20;99.90;;;;;;5076672;28;20131;-68
2023/12/29 06:54:45;;;;;;;29.98;4.13;;;9.20;99.90;;;;;;5083911;28;20044;-67
2023/12/29 06:57:14;;;;;;;30.60;3.92;;;9.20;99.90;;;;;;5079330;28;20056;-68
2023/12/29 06:59:40;;;;;;;24.45;4.03;;;9.20;99.90;;;;;;5093838;28;20298;-68
2023/12/29 07:02:06;;;;;;;34.80;4.57;;;9.20;99.90;;;;;;5071428;28;20044;-68
2023/12/29 07:04:32;;;;;;;26.63;3.80;;;9.20;99.90;;;;;;5109953;28;20040;-68
2023/12/29 07:07:00;;;;;;;28.70;4.80;;;9.20;99.90;;;;;;5099974;28;20496;-68
2023/12/29 07:09:26;;;;;;;26.40;4.15;;;9.20;99.90;;;;;;5098988;28;20040;-68
2023/12/29 07:11:52;;;;;;;25.95;4.40;;;9.20;99.90;;;;;;5079353;28;20047;-68
2023/12/29 07:14:18;;;;;;;26.67;4.18;;;9.20;99.90;;;;;;5122061;27;20044;-68
2023/12/29 07:16:44;;;;;;;28.38;4.10;;;9.20;99.90;;;;;;5077469;28;20043;-69
2023/12/29 07:19:10;;;;;;;32.97;5.20;;;9.20;99.90;;;;;;5076937;28;20595;-68
2023/12/29 07:21:36;;;;;;;23.63;3.60;;;9.20;99.90;;;;;;5133476;27;20044;-68
2023/12/29 07:24:02;;;;;;;30.35;3.92;;;9.20;99.90;;;;;;5082700;28;20093;-68
2023/12/29 07:26:28;;;;;;;26.15;4.07;;;9.20;99.90;;;;;;5076058;28;20127;-67
2023/12/29 07:28:54;;;;;;;33.78;4.22;;;9.20;99.90;;;;;;5129306;27;20108;-68
2023/12/29 07:31:23;;;;;;;28.15;4.15;;;9.20;99.90;;;;;;5078621;28;20603;-67
2023/12/29 07:33:50;;;;;;;34.25;4.13;;;9.10;99.90;;;;;;5079515;28;20040;-67
2023/12/29 07:36:18;;;;;;;29.58;3.70;;;9.10;99.90;;;;;;5085740;28;20483;-67
2023/12/29 07:38:44;;;;;;;28.42;4.20;;;9.10;99.90;;;;;;5101179;28;20044;-67
2023/12/29 07:41:10;;;;;;;22.27;3.97;;;9.10;99.90;;;;;;5084970;28;20096;-68
2023/12/29 07:43:36;;;;;;;30.55;3.97;;;9.10;99.90;;;;;;5098093;28;20811;-67
2023/12/29 07:46:03;;;;;;;21.98;3.40;;;9.10;99.90;;;;;;5075374;28;20108;-66
2023/12/29 07:48:29;;;;;;;28.55;4.22;;;9.10;99.90;;;;;;5091082;28;20066;-67
2023/12/29 07:51:02;;;;;;;27.45;4.07;;;9.10;99.90;;;;;;5103119;28;20063;-66
2023/12/29 07:53:28;;;;;;;31.73;3.60;;;9.00;99.90;;;;;;5107337;28;20051;-68
2023/12/29 07:55:54;;;;;;;31.35;4.35;;;9.00;99.90;;;;;;5091074;28;20713;-67
2023/12/29 07:58:21;;;;;;;26.15;3.97;;;8.60;99.90;;;;;;5108002;28;20424;-67
2023/12/29 08:00:47;;;;;;;28.15;3.95;;;9.00;99.90;;;;;;5089550;28;20447;-67
2023/12/29 08:03:13;;;;;;;35.42;4.85;;;9.00;99.90;;;;;;5092296;28;20044;-65
2023/12/29 08:05:38;;;;;;;33.65;4.50;;;9.10;99.90;;;;;;5101132;28;20043;-64
2023/12/29 08:08:05;;;;;;;27.35;3.90;;;9.00;99.90;;;;;;5101551;28;20440;-65
2023/12/29 08:10:31;;;;;;;32.45;4.40;;;9.00;99.90;;;;;;5104970;28;20180;-65
2023/12/29 08:12:57;;;;;;;40.05;4.97;;;9.40;99.90;;;;;;5107804;28;20062;-65
2023/12/29 08:15:23;;;;;;;34.40;4.78;;;9.00;99.90;;;;;;5107827;27;20035;-66
2023/12/29 08:17:49;;;;;;;29.63;3.97;;;9.00;99.90;;;;;;5138645;27;20126;-65
2023/12/29 08:20:14;;;;;;;27.85;3.58;;;9.00;99.90;;;;;;5129242;27;20051;-65
2023/12/29 08:22:42;;;;;;;22.17;4.05;;;9.00;99.90;;;;;;5091839;28;20046;-64
2023/12/29 08:25:08;;;;;;;30.02;4.22;;;9.00;99.90;;;;;;5088189;27;21165;-65
2023/12/29 08:27:34;;;;;;;30.58;4.05;;;9.00;99.90;;;;;;5085387;28;20853;-64
2023/12/29 08:30:01;;;;;;;24.88;4.00;;;9.00;99.90;;;;;;5095897;28;20047;-65
2023/12/29 08:32:26;;;;;;;35.67;4.47;;;9.00;99.90;;;;;;5091352;28;20298;-66
2023/12/29 08:34:52;;;;;;;24.67;3.33;;;9.10;99.90;;;;;;5095928;28;20054;-65
2023/12/29 08:37:19;;;;;;;22.92;4.60;;;9.00;99.90;;;;;;5113716;27;20102;-65
2023/12/29 08:39:48;;;;;;;36.25;5.85;;;9.00;99.90;;;;;;5092969;28;20056;-65
2023/12/29 08:42:15;;;;;;;31.73;4.63;;;9.10;99.90;;;;;;5095648;27;20494;-65
2023/12/29 08:44:40;;;;;;;20.95;3.95;;;9.10;99.90;;;;;;5091019;28;20067;-65
2023/12/29 08:47:09;;;;;;;35.65;4.75;;;9.10;99.90;;;;;;5089543;28;20043;-65
2023/12/29 08:49:37;;;;;;;25.58;4.43;;;9.10;99.90;;;;;;5112497;27;20077;-65
2023/12/29 08:52:03;;;;;;;29.40;4.47;;;9.10;99.90;;;;;;5125521;27;20039;-65
2023/12/29 08:54:29;;;;;;;32.88;3.83;;;9.10;99.90;;;;;;5093987;28;20216;-65
2023/12/29 08:56:55;;;;;;;36.78;4.97;;;9.00;99.90;;;;;;5097270;28;20119;-65
2023/12/29 08:59:23;;;;;;;31.25;4.25;;;9.10;99.90;;;;;;5127294;27;20043;-67
2023/12/29 09:01:49;;;;;;;31.40;4.88;;;9.10;99.90;;;;;;5078109;28;20036;-68
2023/12/29 09:04:15;;;;;;;27.30;4.40;;;9.10;99.90;;;;;;5095367;28;20119;-67
2023/12/29 09:06:40;;;;;;;43.33;5.47;;;9.10;99.90;;;;;;5076426;28;20555;-67
2023/12/29 09:09:06;;;;;;;40.90;4.82;;;9.10;99.90;;;;;;5078980;28;20046;-68
2023/12/29 09:11:32;;;;;;;35.67;4.38;;;9.10;99.90;;;;;;5096884;28;20168;-68
2023/12/29 09:13:58;;;;;;;30.55;4.88;;;9.10;99.90;;;;;;5085914;28;20051;-68
2023/12/29 09:16:23;;;;;;;29.10;4.60;;;9.10;99.90;;;;;;5099154;27;20040;-67
2023/12/29 09:18:49;;;;;;;28.80;3.65;;;9.10;99.90;;;;;;5101092;28;20050;-67
2023/12/29 09:21:15;;;;;;;32.58;4.78;;;9.10;99.90;;;;;;5125313;27;20058;-68
2023/12/29 09:23:41;;;;;;;21.25;3.30;;;9.10;99.90;;;;;;5097086;28;20079;-68
2023/12/29 09:26:07;;;;;;;32.47;4.30;;;9.10;99.90;;;;;;5090374;28;20054;-68
2023/12/29 09:28:33;;;;;;;25.55;4.40;;;9.20;99.90;;;;;;5091889;28;20044;-67
2023/12/29 09:31:00;;;;;;;23.38;4.20;;;9.10;99.90;;;;;;5092705;28;20071;-67
2023/12/29 09:33:27;;;;;;;30.83;3.78;;;9.20;99.90;;;;;;5099704;28;20057;-67
2023/12/29 09:35:53;;;;;;;24.65;4.38;;;9.20;99.90;;;;;;5096001;28;20144;-67
2023/12/29 09:38:19;;;;;;;24.13;3.70;;;9.20;99.90;;;;;;5072285;28;20732;-67
2023/12/29 09:40:46;;;;;;;24.10;4.00;;;9.30;99.90;;;;;;5103677;28;20036;-68
2023/12/29 09:43:13;;;;;;;27.92;3.88;;;9.30;99.90;;;;;;5082220;27;20047;-68
2023/12/29 09:45:42;;;;;;;26.45;4.18;;;9.30;99.90;;;;;;5093847;28;20052;-68
2023/12/29 09:48:10;;;;;;;33.58;4.78;;;9.30;99.90;;;;;;5095931;28;20058;-68
2023/12/29 09:50:37;;;;;;;27.15;3.95;;;9.30;99.90;;;;;;5085163;28;20047;-68
2023/12/29 09:53:04;;;;;;;31.52;4.45;;;9.30;99.90;;;;;;5115615;27;20052;-68
2023/12/29 09:55:30;;;;;;;21.75;4.00;;;9.30;99.90;;;;;;5081238;28;20055;-67
2023/12/29 09:57:59;;;;;;;24.35;3.92;;;9.40;99.90;;;;;;5091091;28;20567;-68
2023/12/29 10:00:26;;;;;;;24.92;3.55;;;9.40;99.90;;;;;;5095115;28;20050;-67
2023/12/29 10:02:55;;;;;;;23.20;3.47;;;9.40;99.90;;;;;;5098553;28;20035;-67
2023/12/29 10:05:23;;;;;;;32.60;4.10;;;9.40;99.90;;;;;;5083259;28;20035;-68
2023/12/29 10:07:51;;;;;;;22.65;3.55;;;9.40;99.90;;;;;;5073542;28;20048;-68
2023/12/29 10:10:17;;;;;;;28.52;3.13;;;9.40;99.90;;;;;;5079538;28;20059;-68
2023/12/29 10:12:47;;;;;;;23.40;3.45;;;9.50;99.90;;;;;;5091435;28;20171;-67
2023/12/29 10:15:21;;;;;;;24.17;3.50;;;9.50;99.90;;;;;;5098064;28;20051;-67
2023/12/29 10:18:07;;;;;;;22.55;3.55;;;9.50;99.90;;;;;;5090725;28;20379;-67
2023/12/29 10:20:50;;;;;;;21.85;3.92;;;9.50;99.90;;;;;;5095873;28;20134;-69
2023/12/29 10:23:20;;;;;;;21.17;2.90;;;9.50;99.90;;;;;;5097820;28;20032;-66
2023/12/29 10:25:48;;;;;;;22.60;2.78;;;9.50;99.90;;;;;;5077085;28;20051;-66
2023/12/29 10:28:15;;;;;;;20.55;3.08;;;9.50;99.90;;;;;;5102668;28;20048;-66
2023/12/29 10:30:41;;;;;;;25.30;3.90;;;9.50;99.90;;;;;;5099579;28;20138;-66
2023/12/29 10:33:08;;;;;;;21.33;3.42;;;9.50;99.90;;;;;;5081958;28;20501;-66
2023/12/29 10:35:37;;;;;;;21.90;4.00;;;9.50;99.90;;;;;;5084178;28;20549;-66
2023/12/29 10:38:13;;;;;;;22.40;2.75;;;9.50;99.90;;;;;;5097866;28;20043;-66
2023/12/29 10:40:39;;;;;;;25.63;3.90;;;9.40;99.90;;;;;;5131711;27;20046;-66
2023/12/29 10:43:08;;;;;;;23.95;3.42;;;9.40;99.90;;;;;;5117773;27;20412;-65
2023/12/29 10:45:34;;;;;;;20.92;3.40;;;9.40;99.90;;;;;;5129471;27;20523;-66
2023/12/29 10:48:01;;;;;;;18.90;3.13;;;9.40;99.90;;;;;;5100549;28;20126;-66
2023/12/29 10:50:27;;;;;;;22.65;3.55;;;9.40;99.90;;;;;;5098504;28;20043;-67
2023/12/29 10:53:13;;;;;;;20.52;2.70;;;9.30;99.90;;;;;;5091742;28;20147;-66
2023/12/29 10:55:39;;;;;;;21.23;2.95;;;9.30;99.90;;;;;;5125677;27;20047;-65
2023/12/29 10:58:05;;;;;;;18.17;2.75;;;9.80;99.90;;;;;;5081746;28;20058;-65
2023/12/29 11:00:32;;;;;;;23.70;3.40;;;9.30;99.90;;;;;;5103176;28;20048;-65
2023/12/29 11:02:59;;;;;;;18.73;2.17;;;9.30;99.90;;;;;;5131631;27;20043;-65
2023/12/29 11:05:26;;;;;;;18.85;2.78;;;9.20;99.90;;;;;;5103868;28;20376;-66
2023/12/29 11:07:54;;;;;;;19.60;3.05;;;9.20;99.90;;;;;;5102815;27;20062;-66
2023/12/29 11:10:21;;;;;;;14.40;2.65;;;9.20;99.90;;;;;;5135360;27;20130;-65
2023/12/29 11:12:48;;;;;;;17.38;2.42;;;9.20;99.90;;;;;;5127018;27;20136;-66
2023/12/29 11:15:15;;;;;;;16.08;2.50;;;9.10;99.90;;;;;;5094690;28;20083;-65
2023/12/29 11:17:49;;;;;;;19.98;2.45;;;9.10;99.90;;;;;;5092606;28;20106;-66
2023/12/29 11:20:16;;;;;;;12.80;2.35;;;9.10;99.90;;;;;;5098618;28;20054;-66
2023/12/29 11:22:43;;;;;;;14.93;2.55;;;9.10;99.90;;;;;;5105835;28;20142;-66
2023/12/29 11:25:09;;;;;;;22.77;3.47;;;9.10;99.90;;;;;;5106664;28;20055;-66
2023/12/29 11:27:35;;;;;;;18.65;2.67;;;9.10;99.90;;;;;;5086211;28;20044;-66
2023/12/29 11:30:04;;;;;;;12.48;2.05;;;9.10;99.90;;;;;;5097442;28;20051;-67
2023/12/29 11:32:54;;;;;;;16.45;2.70;;;9.10;99.90;;;;;;5095767;28;20040;-68
2023/12/29 11:35:24;;;;;;;20.27;2.78;;;9.10;99.90;;;;;;5079175;28;20053;-66
2023/12/29 11:38:05;;;;;;;19.80;3.55;;;9.10;99.90;;;;;;5103353;28;20047;-67
2023/12/29 11:40:36;;;;;;;20.63;3.08;;;9.10;99.90;;;;;;5101149;28;20036;-66
2023/12/29 11:43:08;;;;;;;20.48;2.50;;;9.20;99.90;;;;;;5102756;28;20048;-67
2023/12/29 11:45:35;;;;;;;15.98;2.85;;;9.50;99.90;;;;;;5136661;27;20122;-66
2023/12/29 11:48:04;;;;;;;16.88;2.92;;;9.30;99.90;;;;;;5103344;28;20416;-67
2023/12/29 11:50:37;;;;;;;21.50;3.40;;;9.40;99.90;;;;;;5108983;27;20035;-67
2023/12/29 11:53:03;;;;;;;20.08;3.78;;;9.40;99.90;;;;;;5101265;28;20133;-65
2023/12/29 11:55:35;;;;;;;21.77;3.47;;;9.30;99.90;;;;;;5106819;28;20450;-65
2023/12/29 11:58:01;;;;;;;21.63;2.40;;;9.30;99.90;;;;;;5131102;27;20173;-66
2023/12/29 12:00:46;;;;;;;23.45;3.63;;;9.40;99.90;;;;;;5128530;27;20048;-66
2023/12/29 12:03:26;;;;;;;16.67;2.63;;;9.40;99.90;;;;;;5092924;27;20123;-66
2023/12/29 12:05:54;;;;;;;22.25;3.28;;;9.40;99.90;;;;;;5086238;28;20117;-66
2023/12/29 12:08:34;;;;;;;21.25;2.70;;;9.40;99.90;;;;;;5091127;28;20059;-65
2023/12/29 12:11:35;;;;;;;19.67;3.03;;;9.40;99.90;;;;;;5092634;28;20055;-65
2023/12/29 12:14:02;;;;;;;19.30;2.85;;;9.40;99.90;;;;;;5092832;28;20051;-66
2023/12/29 12:16:51;;;;;;;19.20;3.13;;;9.40;99.90;;;;;;5091214;28;20093;-66
2023/12/29 12:19:19;;;;;;;15.00;2.63;;;9.40;99.90;;;;;;5123121;27;20052;-66
2023/12/29 12:21:48;;;;;;;17.40;2.38;;;9.40;99.90;;;;;;5086019;28;20504;-65
2023/12/29 12:24:14;;;;;;;20.02;3.17;;;9.30;99.90;;;;;;5121220;27;20044;-66
2023/12/29 12:26:41;;;;;;;12.88;2.25;;;9.30;99.90;;;;;;5110996;27;20047;-65
2023/12/29 12:29:08;;;;;;;14.52;2.33;;;9.20;99.90;;;;;;5086502;28;20090;-65
2023/12/29 12:31:33;;;;;;;16.10;2.10;;;9.20;99.90;;;;;;5086731;28;20052;-65
2023/12/29 12:34:00;;;;;;;19.77;2.50;;;9.20;99.90;;;;;;5107376;27;20036;-66
2023/12/29 12:36:26;;;;;;;16.42;2.42;;;9.20;99.90;;;;;;5122709;27;20117;-65
2023/12/29 12:38:53;;;;;;;18.80;2.88;;;9.10;99.90;;;;;;5123518;27;20044;-65
2023/12/29 12:41:25;;;;;;;15.07;2.72;;;9.20;99.90;;;;;;5083240;28;20123;-66
2023/12/29 12:44:15;;;;;;;20.70;3.50;;;9.10;99.90;;;;;;5103375;28;20039;-65
2023/12/29 12:46:48;;;;;;;18.63;2.97;;;9.10;99.90;;;;;;5102032;28;20315;-65
2023/12/29 12:49:14;;;;;;;16.90;2.88;;;9.00;99.90;;;;;;5105319;28;20137;-65